createdAt,value
2022-08-16T00:00:59.612Z,7.40
2022-08-16T00:02:12.836Z,8.30
2022-08-16T00:03:13.176Z,6.70
2022-08-16T00:04:13.684Z,7.50
2022-08-16T00:05:16.574Z,7.70
2022-08-16T00:06:21.390Z,6.90
2022-08-16T00:07:24.739Z,6.80
2022-08-16T00:08:35.899Z,7.60
2022-08-16T00:09:35.709Z,7.10
2022-08-16T00:10:38.535Z,8.50
2022-08-16T00:11:41.491Z,7.00
2022-08-16T00:12:44.363Z,8.00
2022-08-16T00:13:54.495Z,7.90
2022-08-16T00:14:56.791Z,6.90
2022-08-16T00:15:56.872Z,6.80
2022-08-16T00:17:18.394Z,6.90
2022-08-16T00:18:05.101Z,7.40
2022-08-16T00:19:09.983Z,8.00
2022-08-16T00:20:17.792Z,8.50
2022-08-16T00:21:23.022Z,7.70
2022-08-16T00:22:25.537Z,7.10
2022-08-16T00:23:34.856Z,7.80
2022-08-16T00:24:33.687Z,6.60
2022-08-16T00:26:34.294Z,7.80
2022-08-16T00:26:44.969Z,6.50
2022-08-16T00:27:47.746Z,7.50
2022-08-16T00:28:54.550Z,6.20
2022-08-16T00:30:00.486Z,7.70
2022-08-16T00:31:01.017Z,6.20
2022-08-16T00:32:06.436Z,6.90
2022-08-16T00:33:09.624Z,7.50
2022-08-16T00:34:18.512Z,8.64
2022-08-16T00:35:19.645Z,9.40
2022-08-16T00:36:24.248Z,7.00
2022-08-16T00:37:57.467Z,7.64
2022-08-16T00:38:40.571Z,7.10
2022-08-16T00:39:35.541Z,7.40
2022-08-16T00:40:43.896Z,7.20
2022-08-16T00:41:47.156Z,6.80
2022-08-16T00:42:50.813Z,6.70
2022-08-16T00:43:55.428Z,6.40
2022-08-16T00:46:35.372Z,6.70
2022-08-16T00:47:42.679Z,7.40
2022-08-16T00:48:45.623Z,7.00
2022-08-16T00:49:56.286Z,7.64
2022-08-16T00:50:55.215Z,7.00
2022-08-16T00:51:57.430Z,6.20
2022-08-16T00:53:01.340Z,6.70
2022-08-16T00:54:03.942Z,6.50
2022-08-16T00:55:08.331Z,6.90
2022-08-16T00:56:56.466Z,6.00
2022-08-16T00:57:18.578Z,6.80
2022-08-16T00:58:32.287Z,6.40
2022-08-16T00:59:30.118Z,8.80
2022-08-16T01:00:34.880Z,7.20
2022-08-16T01:01:37.706Z,6.70
2022-08-16T01:02:40.100Z,6.00
2022-08-16T01:03:47.114Z,6.80
2022-08-16T01:05:11.151Z,6.80
2022-08-16T01:05:55.811Z,6.60
2022-08-16T01:07:02.858Z,7.10
2022-08-16T01:08:35.014Z,6.50
2022-08-16T01:09:11.302Z,6.60
2022-08-16T01:10:16.153Z,6.70
2022-08-16T01:11:20.162Z,5.80
2022-08-16T01:12:26.735Z,6.30
2022-08-16T01:13:30.878Z,6.80
2022-08-16T01:14:43.555Z,7.10
2022-08-16T01:15:52.669Z,8.20
2022-08-16T01:16:52.937Z,8.40
2022-08-16T01:17:56.112Z,6.90
2022-08-16T01:20:23.679Z,4.20
2022-08-16T01:21:22.375Z,5.10
2022-08-16T01:22:47.619Z,7.20
2022-08-16T01:24:00.775Z,4.50
2022-08-16T01:26:34.873Z,6.70
2022-08-16T01:27:22.139Z,6.40
2022-08-16T01:28:30.905Z,7.20
2022-08-16T01:29:57.737Z,6.80
2022-08-16T01:30:49.834Z,7.40
2022-08-16T01:31:49.925Z,7.40
2022-08-16T01:33:02.277Z,6.80
2022-08-16T01:34:02.915Z,7.30
2022-08-16T01:35:19.737Z,7.60
2022-08-16T01:36:23.662Z,6.70
2022-08-16T01:37:27.846Z,6.50
2022-08-16T01:39:46.915Z,6.70
2022-08-16T01:40:51.595Z,6.50
2022-08-16T01:41:54.696Z,6.60
2022-08-16T01:42:58.277Z,6.40
2022-08-16T01:44:01.739Z,7.27
2022-08-16T01:45:06.802Z,6.90
2022-08-16T01:46:37.886Z,6.50
2022-08-16T01:47:27.446Z,7.40
2022-08-16T01:48:31.957Z,5.00
2022-08-16T01:49:45.498Z,3.40
2022-08-16T01:51:16.371Z,6.80
2022-08-16T01:51:49.084Z,7.50
2022-08-16T01:52:53.915Z,7.20
2022-08-16T01:54:04.401Z,7.80
2022-08-16T01:55:09.786Z,5.80
2022-08-16T01:56:29.407Z,7.70
2022-08-16T01:57:32.117Z,7.80
2022-08-16T01:58:37.313Z,7.20
2022-08-16T01:59:40.363Z,5.90
2022-08-16T02:00:59.852Z,7.30
2022-08-16T02:02:05.030Z,7.00
2022-08-16T02:03:12.562Z,7.20
2022-08-16T02:04:13.733Z,4.20
2022-08-16T02:05:20.946Z,5.50
2022-08-16T02:06:34.263Z,6.10
2022-08-16T02:07:31.223Z,7.70
2022-08-16T02:08:34.600Z,6.80
2022-08-16T02:09:37.683Z,6.70
2022-08-16T02:10:41.320Z,5.90
2022-08-16T02:11:48.520Z,7.10
2022-08-16T02:12:55.985Z,8.20
2022-08-16T02:13:55.122Z,7.90
2022-08-16T02:14:59.503Z,6.36
2022-08-16T02:16:03.432Z,7.50
2022-08-16T02:17:08.145Z,7.60
2022-08-16T02:18:12.706Z,6.80
2022-08-16T02:19:16.801Z,7.70
2022-08-16T02:20:26.186Z,5.90
2022-08-16T02:21:31.264Z,6.90
2022-08-16T02:22:34.412Z,8.00
2022-08-16T02:23:36.053Z,8.40
2022-08-16T02:24:42.333Z,8.80
2022-08-16T02:25:51.724Z,7.20
2022-08-16T02:26:48.526Z,5.60
2022-08-16T02:27:54.084Z,6.10
2022-08-16T02:28:57.948Z,3.40
2022-08-16T02:30:04.932Z,7.60
2022-08-16T02:31:07.212Z,7.30
2022-08-16T02:32:50.708Z,7.70
2022-08-16T02:33:19.008Z,8.00
2022-08-16T02:34:21.405Z,8.20
2022-08-16T02:35:26.836Z,7.00
2022-08-16T02:36:47.198Z,7.40
2022-08-16T02:37:51.315Z,7.80
2022-08-16T02:38:39.146Z,4.90
2022-08-16T02:39:42.120Z,7.64
2022-08-16T02:40:45.782Z,7.50
2022-08-16T02:41:53.344Z,6.70
2022-08-16T02:42:54.179Z,7.40
2022-08-16T02:43:58.294Z,7.90
2022-08-16T02:45:01.462Z,7.30
2022-08-16T02:46:07.355Z,7.20
2022-08-16T02:47:10.398Z,7.60
2022-08-16T02:48:29.207Z,8.00
2022-08-16T02:49:19.215Z,7.90
2022-08-16T02:50:54.918Z,7.80
2022-08-16T02:51:29.786Z,8.20
2022-08-16T02:52:34.402Z,8.30
2022-08-16T02:53:43.633Z,7.50
2022-08-16T02:54:46.210Z,8.10
2022-08-16T02:55:51.204Z,9.20
2022-08-16T02:56:54.677Z,7.10
2022-08-16T02:57:57.981Z,8.30
2022-08-16T02:59:00.452Z,7.50
2022-08-16T03:01:25.339Z,4.80
2022-08-16T03:02:31.929Z,8.00
2022-08-16T03:04:29.000Z,6.70
2022-08-16T03:04:50.573Z,7.80
2022-08-16T03:05:37.966Z,9.50
2022-08-16T03:06:43.113Z,8.70
2022-08-16T03:07:53.388Z,9.30
2022-08-16T03:08:55.896Z,8.10
2022-08-16T03:10:00.533Z,8.40
2022-08-16T03:11:05.237Z,7.40
2022-08-16T03:12:07.784Z,9.10
2022-08-16T03:13:12.398Z,9.45
2022-08-16T03:14:21.056Z,8.70
2022-08-16T03:15:21.339Z,9.20
2022-08-16T03:16:37.977Z,9.10
2022-08-16T03:17:32.478Z,6.00
2022-08-16T03:18:40.433Z,8.30
2022-08-16T03:19:48.608Z,8.00
2022-08-16T03:20:46.803Z,9.00
2022-08-16T03:21:51.801Z,9.00
2022-08-16T03:22:54.473Z,9.50
2022-08-16T03:23:59.270Z,7.60
2022-08-16T03:25:04.299Z,6.70
2022-08-16T03:26:09.206Z,0.20
2022-08-16T03:27:11.900Z,8.50
2022-08-16T03:28:14.462Z,8.10
2022-08-16T03:29:19.185Z,8.60
2022-08-16T03:30:25.519Z,8.30
2022-08-16T03:31:34.681Z,8.60
2022-08-16T03:32:34.361Z,8.40
2022-08-16T03:33:36.809Z,9.10
2022-08-16T03:34:40.005Z,7.20
2022-08-16T03:35:44.402Z,8.70
2022-08-16T03:36:54.765Z,9.50
2022-08-16T03:38:02.434Z,9.27
2022-08-16T03:39:04.372Z,9.30
2022-08-16T03:40:10.656Z,8.20
2022-08-16T03:41:25.366Z,8.60
2022-08-16T03:42:20.379Z,8.90
2022-08-16T03:43:50.718Z,9.50
2022-08-16T03:44:44.544Z,9.70
2022-08-16T03:45:33.874Z,8.90
2022-08-16T03:46:47.862Z,8.40
2022-08-16T03:47:42.184Z,9.50
2022-08-16T03:48:44.886Z,9.00
2022-08-16T03:49:51.916Z,11.30
2022-08-16T03:50:59.468Z,11.20
2022-08-16T03:52:00.801Z,13.20
2022-08-16T03:53:06.017Z,12.00
2022-08-16T03:54:12.221Z,13.00
2022-08-16T03:55:14.688Z,12.00
2022-08-16T03:56:20.957Z,13.70
2022-08-16T03:57:23.266Z,12.40
2022-08-16T03:58:25.614Z,11.80
2022-08-16T03:59:30.476Z,12.50
2022-08-16T04:00:41.344Z,12.20
2022-08-16T04:01:42.175Z,12.20
2022-08-16T04:02:46.555Z,12.00
2022-08-16T04:03:51.462Z,12.50
2022-08-16T04:04:56.342Z,13.70
2022-08-16T04:06:02.297Z,9.90
2022-08-16T04:07:07.484Z,13.90
2022-08-16T04:08:22.402Z,13.30
2022-08-16T04:09:17.431Z,13.90
2022-08-16T04:10:36.783Z,11.80
2022-08-16T04:11:26.739Z,13.80
2022-08-16T04:12:53.985Z,12.90
2022-08-16T04:13:59.926Z,14.20
2022-08-16T04:14:46.879Z,13.50
2022-08-16T04:15:44.997Z,14.40
2022-08-16T04:16:50.220Z,12.50
2022-08-16T04:17:56.222Z,13.20
2022-08-16T04:19:19.521Z,14.80
2022-08-16T04:20:33.774Z,12.70
2022-08-16T04:21:33.073Z,10.50
2022-08-16T04:22:36.642Z,12.20
2022-08-16T04:23:41.049Z,14.00
2022-08-16T04:24:54.819Z,13.50
2022-08-16T04:25:49.598Z,12.60
2022-08-16T04:26:54.122Z,10.20
2022-08-16T04:27:56.648Z,12.50
2022-08-16T04:29:16.414Z,13.60
2022-08-16T04:30:10.955Z,11.40
2022-08-16T04:31:16.412Z,12.70
2022-08-16T04:32:20.841Z,11.50
2022-08-16T04:33:27.565Z,11.90
2022-08-16T04:34:33.447Z,11.70
2022-08-16T04:35:36.731Z,11.40
2022-08-16T04:36:41.552Z,12.50
2022-08-16T04:37:46.069Z,11.20
2022-08-16T04:38:50.278Z,11.80
2022-08-16T04:39:55.651Z,12.00
2022-08-16T04:40:59.745Z,11.50
2022-08-16T04:42:11.327Z,10.80
2022-08-16T04:43:09.127Z,12.10
2022-08-16T04:44:32.548Z,12.30
2022-08-16T04:45:36.496Z,10.50
2022-08-16T04:47:00.614Z,11.00
2022-08-16T04:47:33.353Z,11.60
2022-08-16T04:48:34.594Z,10.80
2022-08-16T04:49:45.755Z,11.80
2022-08-16T04:50:43.842Z,9.10
2022-08-16T04:51:55.272Z,11.60
2022-08-16T04:52:55.789Z,7.20
2022-08-16T04:53:58.969Z,11.20
2022-08-16T04:56:17.181Z,9.60
2022-08-16T04:57:19.875Z,11.90
2022-08-16T04:58:44.331Z,10.60
2022-08-16T04:59:29.664Z,9.50
2022-08-16T05:00:35.473Z,11.90
2022-08-16T05:01:57.978Z,11.50
2022-08-16T05:02:55.708Z,8.10
2022-08-16T05:04:00.569Z,10.80
2022-08-16T05:05:04.852Z,10.50
2022-08-16T05:06:09.349Z,23.70
2022-08-16T05:07:14.956Z,17.50
2022-08-16T05:08:29.961Z,11.60
2022-08-16T05:09:23.962Z,6.70
2022-08-16T05:10:29.590Z,10.00
2022-08-16T05:11:32.671Z,11.70
2022-08-16T05:12:37.295Z,11.90
2022-08-16T05:13:42.594Z,10.50
2022-08-16T05:15:01.824Z,9.30
2022-08-16T05:15:53.439Z,11.60
2022-08-16T05:16:58.747Z,9.20
2022-08-16T05:18:03.671Z,8.50
2022-08-16T05:19:20.684Z,10.60
2022-08-16T05:20:39.227Z,9.70
2022-08-16T05:21:35.703Z,8.30
2022-08-16T05:22:39.297Z,9.90
2022-08-16T05:23:49.180Z,9.00
2022-08-16T05:24:48.028Z,1.40
2022-08-16T05:25:52.979Z,7.50
2022-08-16T05:26:57.663Z,8.60
2022-08-16T05:28:02.106Z,9.10
2022-08-16T05:29:06.499Z,8.00
2022-08-16T05:30:35.244Z,9.40
2022-08-16T05:31:20.318Z,7.80
2022-08-16T05:32:33.856Z,8.50
2022-08-16T05:33:31.988Z,8.10
2022-08-16T05:34:35.122Z,8.50
2022-08-16T05:35:38.440Z,11.90
2022-08-16T05:36:45.955Z,8.90
2022-08-16T05:37:48.626Z,5.40
2022-08-16T05:38:53.311Z,10.40
2022-08-16T05:39:55.788Z,9.50
2022-08-16T05:41:00.204Z,9.50
2022-08-16T05:42:06.668Z,8.30
2022-08-16T05:43:12.255Z,8.50
2022-08-16T05:44:23.033Z,10.40
2022-08-16T05:45:23.778Z,7.50
2022-08-16T05:46:31.188Z,10.60
2022-08-16T05:47:34.662Z,8.60
2022-08-16T05:48:39.135Z,8.40
2022-08-16T05:49:44.404Z,7.90
2022-08-16T05:50:53.169Z,8.90
2022-08-16T05:51:54.341Z,8.60
2022-08-16T05:52:58.067Z,9.10
2022-08-16T05:54:00.704Z,9.50
2022-08-16T05:55:05.533Z,9.80
2022-08-16T05:56:10.212Z,10.90
2022-08-16T05:57:17.276Z,8.70
2022-08-16T05:58:32.920Z,10.90
2022-08-16T05:59:24.581Z,9.00
2022-08-16T06:00:30.002Z,9.80
2022-08-16T06:01:33.173Z,9.60
2022-08-16T06:02:38.246Z,8.10
2022-08-16T06:03:41.466Z,9.90
2022-08-16T06:04:49.518Z,9.00
2022-08-16T06:05:52.500Z,10.50
2022-08-16T06:06:57.784Z,8.80
2022-08-16T06:08:02.421Z,10.50
2022-08-16T06:09:11.156Z,9.90
2022-08-16T06:10:32.923Z,6.30
2022-08-16T06:11:22.681Z,10.10
2022-08-16T06:12:29.149Z,10.10
2022-08-16T06:13:33.825Z,9.70
2022-08-16T06:14:36.559Z,11.30
2022-08-16T06:15:41.546Z,9.40
2022-08-16T06:16:50.921Z,8.90
2022-08-16T06:17:51.725Z,4.90
2022-08-16T06:18:56.624Z,9.40
2022-08-16T06:19:59.555Z,12.10
2022-08-16T06:21:02.175Z,11.00
2022-08-16T06:22:06.150Z,11.80
2022-08-16T06:23:11.729Z,11.30
2022-08-16T06:24:53.420Z,11.00
2022-08-16T06:25:35.580Z,9.70
2022-08-16T06:26:34.694Z,8.80
2022-08-16T06:27:39.791Z,11.00
2022-08-16T06:28:39.104Z,10.80
2022-08-16T06:29:44.509Z,11.60
2022-08-16T06:30:48.980Z,8.90
2022-08-16T06:31:53.797Z,10.90
2022-08-16T06:32:59.440Z,11.80
2022-08-16T06:34:02.273Z,12.90
2022-08-16T06:35:10.332Z,11.00
2022-08-16T06:36:14.846Z,10.10
2022-08-16T06:37:20.101Z,10.70
2022-08-16T06:38:33.245Z,12.20
2022-08-16T06:39:28.091Z,10.90
2022-08-16T06:40:33.579Z,9.40
2022-08-16T06:41:39.681Z,11.90
2022-08-16T06:42:47.669Z,9.70
2022-08-16T06:43:49.496Z,10.10
2022-08-16T06:44:56.163Z,10.90
2022-08-16T06:47:54.069Z,9.50
2022-08-16T06:48:42.923Z,12.10
2022-08-16T06:49:52.829Z,13.70
2022-08-16T06:50:53.246Z,13.00
2022-08-16T06:52:02.729Z,11.50
2022-08-16T06:53:06.829Z,12.40
2022-08-16T06:54:07.223Z,12.60
2022-08-16T06:55:13.588Z,11.50
2022-08-16T06:56:23.615Z,12.30
2022-08-16T06:57:26.955Z,11.40
2022-08-16T06:58:31.457Z,13.60
2022-08-16T06:59:52.154Z,15.50
2022-08-16T07:00:43.107Z,16.70
2022-08-16T07:01:54.280Z,14.00
2022-08-16T07:02:51.792Z,12.60
2022-08-16T07:03:57.296Z,12.90
2022-08-16T07:05:01.474Z,15.30
2022-08-16T07:06:04.575Z,15.80
2022-08-16T07:07:09.865Z,15.40
2022-08-16T07:08:13.710Z,12.70
2022-08-16T07:09:16.405Z,12.45
2022-08-16T07:10:26.647Z,13.60
2022-08-16T07:11:46.199Z,15.50
2022-08-16T07:12:36.757Z,14.60
2022-08-16T07:14:03.894Z,18.40
2022-08-16T07:14:42.206Z,16.20
2022-08-16T07:15:50.550Z,13.60
2022-08-16T07:16:54.142Z,18.80
2022-08-16T07:18:10.471Z,15.60
2022-08-16T07:19:15.035Z,17.10
2022-08-16T07:20:29.878Z,17.10
2022-08-16T07:21:28.456Z,16.40
2022-08-16T07:22:37.247Z,15.20
2022-08-16T07:24:52.360Z,14.80
2022-08-16T07:25:54.779Z,14.00
2022-08-16T07:26:59.193Z,15.10
2022-08-16T07:28:03.951Z,17.00
2022-08-16T07:29:07.603Z,17.80
2022-08-16T07:30:39.763Z,17.60
2022-08-16T07:31:18.778Z,17.80
2022-08-16T07:32:29.185Z,15.60
2022-08-16T07:33:53.138Z,18.00
2022-08-16T07:34:37.705Z,21.00
2022-08-16T07:35:44.120Z,21.60
2022-08-16T07:36:57.835Z,22.20
2022-08-16T07:37:52.384Z,32.10
2022-08-16T07:39:03.585Z,34.50
2022-08-16T07:40:11.519Z,33.80
2022-08-16T07:41:17.307Z,34.10
2022-08-16T07:42:34.830Z,31.30
2022-08-16T07:43:29.708Z,32.70
2022-08-16T07:44:47.601Z,29.00
2022-08-16T07:45:38.737Z,34.10
2022-08-16T07:46:43.534Z,37.30
2022-08-16T07:47:52.076Z,44.40
2022-08-16T07:48:56.367Z,51.80
2022-08-16T07:50:05.418Z,55.40
2022-08-16T07:51:09.081Z,70.60
2022-08-16T07:52:20.084Z,71.50
2022-08-16T07:53:17.409Z,67.00
2022-08-16T07:54:32.005Z,67.10
2022-08-16T07:55:28.372Z,62.40
2022-08-16T07:56:37.266Z,59.50
2022-08-16T07:57:57.966Z,57.30
2022-08-16T07:58:46.612Z,53.90
2022-08-16T07:59:53.247Z,47.70
2022-08-16T08:00:57.943Z,48.20
2022-08-16T08:02:02.699Z,43.50
2022-08-16T08:03:06.036Z,42.10
2022-08-16T08:04:13.049Z,42.00
2022-08-16T08:05:18.433Z,43.50
2022-08-16T08:06:27.410Z,43.00
2022-08-16T08:07:32.563Z,41.40
2022-08-16T08:08:50.168Z,42.10
2022-08-16T08:09:44.047Z,40.70
2022-08-16T08:10:48.073Z,39.30
2022-08-16T08:11:59.842Z,39.18
2022-08-16T08:12:58.457Z,38.30
2022-08-16T08:14:03.641Z,36.40
2022-08-16T08:15:10.494Z,34.40
2022-08-16T08:16:19.039Z,33.90
2022-08-16T08:17:20.319Z,38.90
2022-08-16T08:18:29.470Z,35.50
2022-08-16T08:19:27.741Z,35.90
2022-08-16T08:20:33.951Z,36.50
2022-08-16T08:21:58.405Z,34.60
2022-08-16T08:22:47.834Z,33.90
2022-08-16T08:23:53.236Z,36.40
2022-08-16T08:24:58.949Z,35.10
2022-08-16T08:26:05.289Z,36.10
2022-08-16T08:27:07.920Z,31.40
2022-08-16T08:28:11.247Z,32.50
2022-08-16T08:29:15.710Z,30.90
2022-08-16T08:30:51.490Z,31.10
2022-08-16T08:31:27.237Z,31.40
2022-08-16T08:32:50.446Z,29.10
2022-08-16T08:33:37.007Z,30.10
2022-08-16T08:34:40.405Z,26.27
2022-08-16T08:35:46.144Z,26.60
2022-08-16T08:36:54.399Z,26.70
2022-08-16T08:37:57.755Z,22.50
2022-08-16T08:39:03.689Z,25.70
2022-08-16T08:40:10.199Z,26.50
2022-08-16T08:41:13.536Z,26.90
2022-08-16T08:42:16.596Z,19.40
2022-08-16T08:43:21.931Z,22.50
2022-08-16T08:44:28.407Z,22.70
2022-08-16T08:45:48.667Z,20.70
2022-08-16T08:46:37.017Z,23.20
2022-08-16T08:47:40.282Z,21.70
2022-08-16T08:48:43.820Z,20.30
2022-08-16T08:49:55.275Z,22.00
2022-08-16T08:50:53.820Z,22.60
2022-08-16T08:51:58.546Z,20.10
2022-08-16T08:53:01.459Z,18.70
2022-08-16T08:54:06.810Z,19.70
2022-08-16T08:55:13.008Z,20.20
2022-08-16T08:56:22.567Z,17.70
2022-08-16T08:57:22.928Z,19.40
2022-08-16T08:58:34.091Z,17.00
2022-08-16T08:59:41.987Z,18.40
2022-08-16T09:00:51.131Z,16.10
2022-08-16T09:01:56.701Z,17.30
2022-08-16T09:02:57.265Z,16.40
2022-08-16T09:04:00.226Z,18.00
2022-08-16T09:05:15.495Z,17.10
2022-08-16T09:06:09.517Z,15.50
2022-08-16T09:07:13.688Z,15.90
2022-08-16T09:08:17.487Z,14.64
2022-08-16T09:09:23.037Z,16.60
2022-08-16T09:10:29.746Z,17.40
2022-08-16T09:11:40.499Z,14.70
2022-08-16T09:12:37.809Z,15.90
2022-08-16T09:13:47.085Z,12.00
2022-08-16T09:14:51.164Z,13.80
2022-08-16T09:15:53.507Z,14.60
2022-08-16T09:17:01.085Z,14.80
2022-08-16T09:18:25.052Z,10.80
2022-08-16T09:20:12.144Z,13.90
2022-08-16T09:21:16.681Z,13.60
2022-08-16T09:22:22.415Z,14.60
2022-08-16T09:23:26.438Z,15.40
2022-08-16T09:24:51.380Z,14.90
2022-08-16T09:25:35.619Z,14.70
2022-08-16T09:26:43.927Z,14.40
2022-08-16T09:30:34.651Z,7.40
2022-08-16T09:31:19.792Z,13.10
2022-08-16T09:32:28.912Z,15.50
2022-08-16T09:33:37.264Z,12.50
2022-08-16T09:34:33.775Z,12.40
2022-08-16T09:35:37.555Z,13.20
2022-08-16T09:36:45.945Z,12.70
2022-08-16T09:38:01.004Z,12.70
2022-08-16T09:38:53.464Z,13.50
2022-08-16T09:39:59.664Z,12.60
2022-08-16T09:41:03.804Z,11.40
2022-08-16T09:42:07.070Z,12.00
2022-08-16T09:43:37.768Z,13.30
2022-08-16T09:45:11.554Z,13.00
2022-08-16T09:45:22.258Z,10.70
2022-08-16T09:46:48.178Z,12.10
2022-08-16T09:47:29.908Z,10.40
2022-08-16T09:48:44.045Z,10.70
2022-08-16T09:49:41.056Z,10.70
2022-08-16T09:50:44.412Z,10.50
2022-08-16T09:51:51.089Z,11.30
2022-08-16T09:52:55.529Z,11.90
2022-08-16T09:53:59.758Z,11.60
2022-08-16T09:55:02.139Z,11.40
2022-08-16T09:57:25.281Z,10.10
2022-08-16T09:58:40.779Z,11.90
2022-08-16T09:59:38.681Z,10.30
2022-08-16T10:00:44.931Z,12.10
2022-08-16T10:01:45.921Z,11.30
2022-08-16T10:02:48.250Z,14.50
2022-08-16T10:04:02.707Z,12.80
2022-08-16T10:04:57.448Z,12.30
2022-08-16T10:06:00.478Z,12.90
2022-08-16T10:07:15.552Z,9.18
2022-08-16T10:08:26.789Z,13.50
2022-08-16T10:09:15.332Z,12.70
2022-08-16T10:10:30.802Z,13.70
2022-08-16T10:11:26.118Z,13.50
2022-08-16T10:12:28.696Z,12.50
2022-08-16T10:13:31.252Z,11.50
2022-08-16T10:14:34.839Z,14.30
2022-08-16T10:15:43.013Z,8.90
2022-08-16T10:16:48.779Z,12.60
2022-08-16T10:18:01.135Z,13.40
2022-08-16T10:19:06.662Z,9.80
2022-08-16T10:20:03.741Z,12.60
2022-08-16T10:21:08.156Z,10.50
2022-08-16T10:22:12.801Z,12.00
2022-08-16T10:23:17.297Z,11.70
2022-08-16T10:24:27.989Z,10.60
2022-08-16T10:27:17.656Z,12.10
2022-08-16T10:27:20.710Z,11.90
2022-08-16T10:27:47.254Z,13.20
2022-08-16T10:28:39.745Z,10.30
2022-08-16T10:30:00.408Z,9.80
2022-08-16T10:30:56.320Z,11.00
2022-08-16T10:31:54.708Z,12.20
2022-08-16T10:32:58.977Z,11.30
2022-08-16T10:34:01.534Z,11.30
2022-08-16T10:35:05.329Z,11.80
2022-08-16T10:36:09.681Z,9.30
2022-08-16T10:37:14.412Z,12.10
2022-08-16T10:38:27.116Z,11.20
2022-08-16T10:39:24.845Z,9.00
2022-08-16T10:40:30.988Z,10.40
2022-08-16T10:41:34.305Z,11.40
2022-08-16T10:42:39.360Z,10.90
2022-08-16T10:43:43.411Z,11.00
2022-08-16T10:44:53.441Z,13.50
2022-08-16T10:45:57.238Z,11.20
2022-08-16T10:46:55.672Z,12.20
2022-08-16T10:48:00.154Z,9.30
2022-08-16T10:49:10.411Z,11.30
2022-08-16T10:50:18.927Z,11.20
2022-08-16T10:51:18.229Z,11.90
2022-08-16T10:52:21.672Z,9.70
2022-08-16T10:53:33.244Z,9.50
2022-08-16T10:54:32.652Z,10.40
2022-08-16T10:55:40.993Z,11.30
2022-08-16T10:56:55.347Z,10.20
2022-08-16T10:57:48.922Z,10.20
2022-08-16T10:58:52.777Z,11.90
2022-08-16T10:59:58.537Z,12.40
2022-08-16T11:02:59.579Z,11.20
2022-08-16T11:05:05.435Z,10.60
2022-08-16T11:06:38.730Z,11.70
2022-08-16T11:07:52.496Z,10.20
2022-08-16T11:09:21.014Z,11.20
2022-08-16T11:09:54.520Z,12.70
2022-08-16T11:11:01.570Z,11.27
2022-08-16T11:12:13.559Z,11.30
2022-08-16T11:14:12.129Z,10.90
2022-08-16T11:15:18.054Z,13.40
2022-08-16T11:16:27.432Z,11.50
2022-08-16T11:17:32.792Z,13.10
2022-08-16T11:19:04.010Z,12.40
2022-08-16T11:20:49.340Z,12.80
2022-08-16T11:22:52.611Z,11.70
2022-08-16T11:23:59.599Z,13.70
2022-08-16T11:26:07.373Z,13.90
2022-08-16T11:26:22.780Z,12.40
2022-08-16T11:27:20.225Z,12.40
2022-08-16T11:29:26.832Z,12.80
2022-08-16T11:30:37.829Z,13.40
2022-08-16T11:31:36.741Z,11.10
2022-08-16T11:32:42.241Z,12.30
2022-08-16T11:33:52.857Z,12.60
2022-08-16T11:35:10.472Z,13.20
2022-08-16T11:37:01.220Z,10.80
2022-08-16T11:38:47.001Z,14.80
2022-08-16T11:39:14.255Z,13.00
2022-08-16T11:40:19.446Z,13.10
2022-08-16T11:41:23.057Z,2.20
2022-08-16T11:42:29.660Z,14.40
2022-08-16T11:44:56.123Z,13.50
2022-08-16T11:45:54.060Z,11.00
2022-08-16T11:46:54.375Z,12.60
2022-08-16T11:47:57.745Z,11.90
2022-08-16T11:49:02.144Z,14.50
2022-08-16T11:51:18.642Z,14.20
2022-08-16T11:52:22.494Z,13.50
2022-08-16T11:53:27.833Z,12.50
2022-08-16T11:54:34.294Z,13.60
2022-08-16T11:55:38.212Z,14.60
2022-08-16T11:56:52.383Z,15.80
2022-08-16T11:57:45.164Z,12.60
2022-08-16T11:58:51.789Z,16.00
2022-08-16T11:59:53.924Z,14.00
2022-08-16T12:00:58.390Z,14.80
2022-08-16T12:02:31.427Z,13.64
2022-08-16T12:03:18.754Z,11.80
2022-08-16T12:04:22.366Z,12.20
2022-08-16T12:05:25.153Z,16.00
2022-08-16T12:06:30.478Z,14.30
2022-08-16T12:07:34.070Z,13.00
2022-08-16T12:08:37.146Z,13.27
2022-08-16T12:09:43.346Z,12.30
2022-08-16T12:10:45.564Z,14.70
2022-08-16T12:11:53.125Z,13.60
2022-08-16T12:12:52.743Z,14.10
2022-08-16T12:13:56.026Z,13.80
2022-08-16T12:15:00.013Z,14.50
2022-08-16T12:16:03.821Z,9.90
2022-08-16T12:17:06.380Z,14.10
2022-08-16T12:18:10.902Z,16.70
2022-08-16T12:19:15.103Z,15.30
2022-08-16T12:20:23.440Z,14.40
2022-08-16T12:21:35.943Z,11.90
2022-08-16T12:22:36.551Z,14.60
2022-08-16T12:23:38.213Z,16.10
2022-08-16T12:24:42.626Z,9.80
2022-08-16T12:25:46.218Z,14.10
2022-08-16T12:26:49.146Z,15.50
2022-08-16T12:27:51.641Z,15.00
2022-08-16T12:28:56.543Z,15.70
2022-08-16T12:29:59.242Z,14.70
2022-08-16T12:31:01.774Z,15.30
2022-08-16T12:32:38.136Z,16.10
2022-08-16T12:33:10.493Z,14.90
2022-08-16T12:34:19.658Z,14.70
2022-08-16T12:35:19.724Z,15.50
2022-08-16T12:36:24.848Z,13.50
2022-08-16T12:37:28.583Z,15.30
2022-08-16T12:38:41.479Z,16.80
2022-08-16T12:39:36.032Z,17.10
2022-08-16T12:40:41.980Z,15.00
2022-08-16T12:41:45.570Z,16.00
2022-08-16T12:42:50.074Z,16.30
2022-08-16T12:44:00.950Z,16.50
2022-08-16T12:45:01.568Z,15.70
2022-08-16T12:46:06.015Z,17.00
2022-08-16T12:47:10.502Z,12.00
2022-08-16T12:49:18.485Z,15.50
2022-08-16T12:50:23.498Z,15.70
2022-08-16T12:51:59.965Z,17.00
2022-08-16T12:52:40.025Z,17.40
2022-08-16T12:53:42.862Z,15.00
2022-08-16T12:54:55.041Z,16.20
2022-08-16T12:55:53.908Z,17.40
2022-08-16T12:56:57.862Z,13.50
2022-08-16T12:58:02.267Z,16.90
2022-08-16T12:59:08.620Z,16.60
2022-08-16T13:00:26.555Z,15.60
2022-08-16T13:01:22.464Z,19.60
2022-08-16T13:02:33.193Z,17.00
2022-08-16T13:03:32.139Z,17.20
2022-08-16T13:04:34.252Z,18.70
2022-08-16T13:05:38.258Z,13.80
2022-08-16T13:06:44.509Z,15.40
2022-08-16T13:07:51.686Z,16.90
2022-08-16T13:08:52.816Z,17.50
2022-08-16T13:09:57.904Z,16.60
2022-08-16T13:11:00.520Z,20.10
2022-08-16T13:12:06.705Z,20.20
2022-08-16T13:13:09.917Z,18.40
2022-08-16T13:14:19.221Z,18.90
2022-08-16T13:15:19.730Z,19.30
2022-08-16T13:16:24.979Z,17.60
2022-08-16T13:17:29.642Z,17.20
2022-08-16T13:18:34.556Z,17.40
2022-08-16T13:20:06.215Z,19.80
2022-08-16T13:20:41.712Z,17.60
2022-08-16T13:21:45.015Z,16.80
2022-08-16T13:22:53.843Z,18.90
2022-08-16T13:23:56.086Z,18.70
2022-08-16T13:24:59.484Z,17.30
2022-08-16T13:26:03.564Z,15.50
2022-08-16T13:27:06.052Z,18.30
2022-08-16T13:28:09.089Z,19.10
2022-08-16T13:29:13.327Z,18.00
2022-08-16T13:30:36.261Z,19.00
2022-08-16T13:31:24.143Z,19.10
2022-08-16T13:32:39.730Z,15.30
2022-08-16T13:33:33.213Z,18.50
2022-08-16T13:34:35.808Z,17.20
2022-08-16T13:35:44.908Z,17.50
2022-08-16T13:36:49.130Z,17.70
2022-08-16T13:37:53.843Z,14.40
2022-08-16T13:38:58.344Z,17.09
2022-08-16T13:40:01.407Z,16.30
2022-08-16T13:42:18.448Z,16.00
2022-08-16T13:43:21.210Z,16.30
2022-08-16T13:44:39.204Z,15.50
2022-08-16T13:45:36.173Z,16.50
2022-08-16T13:46:36.074Z,19.20
2022-08-16T13:47:39.965Z,16.50
2022-08-16T13:48:45.138Z,13.50
2022-08-16T13:49:47.740Z,17.40
2022-08-16T13:50:52.085Z,17.40
2022-08-16T13:51:55.264Z,15.90
2022-08-16T13:52:59.533Z,13.30
2022-08-16T13:54:03.632Z,15.10
2022-08-16T13:55:15.793Z,17.70
2022-08-16T13:56:22.233Z,16.30
2022-08-16T13:57:18.122Z,15.30
2022-08-16T13:58:36.596Z,17.50
2022-08-16T13:59:29.549Z,13.60
2022-08-16T14:00:32.999Z,17.00
2022-08-16T14:01:36.787Z,19.70
2022-08-16T14:02:41.395Z,17.00
2022-08-16T14:03:44.361Z,16.70
2022-08-16T14:04:48.184Z,18.00
2022-08-16T14:05:53.447Z,18.60
2022-08-16T14:06:57.304Z,16.10
2022-08-16T14:07:59.491Z,15.80
2022-08-16T14:09:06.939Z,18.30
2022-08-16T14:10:10.217Z,17.20
2022-08-16T14:11:14.351Z,16.80
2022-08-16T14:12:26.020Z,16.60
2022-08-16T14:13:28.786Z,15.50
2022-08-16T14:14:31.584Z,16.80
2022-08-16T14:15:34.542Z,16.64
2022-08-16T14:16:39.510Z,15.30
2022-08-16T14:18:20.106Z,14.36
2022-08-16T14:18:46.912Z,15.10
2022-08-16T14:19:49.900Z,17.40
2022-08-16T14:20:53.112Z,15.90
2022-08-16T14:22:14.572Z,15.90
2022-08-16T14:23:04.716Z,17.20
2022-08-16T14:24:22.507Z,15.90
2022-08-16T14:25:16.488Z,17.90
2022-08-16T14:26:19.857Z,15.70
2022-08-16T14:27:25.227Z,15.70
2022-08-16T14:28:28.163Z,17.10
2022-08-16T14:29:31.971Z,16.60
2022-08-16T14:30:35.760Z,15.90
2022-08-16T14:31:39.871Z,15.40
2022-08-16T14:32:46.494Z,16.10
2022-08-16T14:33:48.392Z,15.00
2022-08-16T14:34:51.907Z,15.60
2022-08-16T14:35:56.223Z,13.50